Quantico Creek — WDF5735 — position and weather

sailwx.info

Track history (hours):
 
Tides and Currents Weather Stations Pressure Air Temp Water Temp Dewpoint Dewpoint Depression Visibility Wind Speed Wind Dir Waves Ship Positions

Quantico Creek

Owner: Vane Line Bunkering, Inc., Philadelphia, PA. More information available from US FCC via Universal Licensing System and Coast Guard Vessel Documentation Center.

Last reported at 2018-Feb-24 17:35 UTC. Time now 2018-Feb-25 03:44 UTC.
Position N 27°46' W 082°31'.

Length 31 m; draft 3.9 m.

Type: Other ship. MMSI: 367466650.

Date/timePositionNaut miles runAvg speedWind from/ knotsBaromVisibWave heightAir tempDewpointWater temp
2018-Feb-24 17:35N 27°46' W 082°31'110.0
2018-Feb-24 17:30N 27°46' W 082°31'5 9.4
2018-Feb-24 16:59N 27°49' W 082°27'2 4.2
2018-Feb-24 16:30N 27°51' W 082°27'2 4.9
2018-Feb-24 16:00N 27°54' W 082°26'3 6.3
2018-Feb-24 15:30N 27°57' W 082°27'0 0.1
2018-Feb-24 14:59N 27°57' W 082°27'0 0.0
2018-Feb-24 14:29N 27°57' W 082°27'0 0.0
2018-Feb-24 13:59N 27°57' W 082°27'0 0.0
2018-Feb-24 13:29N 27°57' W 082°27'0 0.0
2018-Feb-24 12:59N 27°57' W 082°27'0 0.0
2018-Feb-24 12:30N 27°57' W 082°27'0 0.7
2018-Feb-24 12:00N 27°56' W 082°27'2 3.4
2018-Feb-24 11:30N 27°55' W 082°27'5 9.5
2018-Feb-24 11:00N 27°50' W 082°27'5 9.5
2018-Feb-24 10:30N 27°47' W 082°31'510.0
2018-Feb-24 10:00N 27°42' W 082°33'3 0.1
2018-Feb-22 16:11N 27°45' W 082°32'2 9.8
2018-Feb-22 16:00N 27°47' W 082°31'5 9.3
2018-Feb-22 15:28N 27°49' W 082°27'5 9.8
2018-Feb-22 15:00N 27°54' W 082°26'3 5.5
2018-Feb-22 14:30N 27°57' W 082°27'0 0.2
2018-Feb-22 13:58N 27°57' W 082°27'0 0.0
2018-Feb-22 13:28N 27°57' W 082°27'0 0.0
2018-Feb-22 12:58N 27°57' W 082°27'0 0.0
2018-Feb-22 12:28N 27°57' W 082°27'0 0.5
2018-Feb-22 12:00N 27°57' W 082°27'0 0.8
2018-Feb-22 11:30N 27°56' W 082°27'4 7.4
2018-Feb-22 11:00N 27°53' W 082°27'5 9.6
2018-Feb-22 10:30N 27°48' W 082°28'5 9.3
2018-Feb-22 10:00N 27°44' W 082°32'1 0.0
2018-Feb-20 21:57N 27°46' W 082°31'4 8.8
2018-Feb-20 21:31N 27°48' W 082°28'5 9.4
2018-Feb-20 21:00N 27°53' W 082°27'2 4.2
2018-Feb-20 20:31N 27°54' W 082°25'0 0.0
2018-Feb-20 19:58N 27°54' W 082°25'0 0.0
2018-Feb-20 19:28N 27°54' W 082°25'0 0.0
2018-Feb-20 18:58N 27°54' W 082°25'0 0.0
2018-Feb-20 18:28N 27°54' W 082°25'0 0.0
2018-Feb-20 17:55N 27°54' W 082°25'0 0.0
2018-Feb-20 17:28N 27°54' W 082°25'0 0.0
2018-Feb-20 16:58N 27°54' W 082°25'0 0.0
2018-Feb-20 16:28N 27°54' W 082°25'0 0.0
2018-Feb-20 15:58N 27°54' W 082°25'0 0.0
2018-Feb-20 15:28N 27°54' W 082°25'0 0.0
2018-Feb-20 14:58N 27°54' W 082°25'0 0.0
2018-Feb-20 14:28N 27°54' W 082°25'0 0.0
2018-Feb-20 13:58N 27°54' W 082°25'0 0.0
2018-Feb-20 13:28N 27°54' W 082°25'0 0.0
2018-Feb-20 12:58N 27°54' W 082°25'0 0.0
2018-Feb-20 12:29N 27°54' W 082°25'0 0.1
2018-Feb-20 12:00N 27°54' W 082°25'3 6.8
2018-Feb-20 11:31N 27°51' W 082°27'4 8.2
2018-Feb-20 11:00N 27°48' W 082°29'4 8.3
2018-Feb-20 10:31N 27°44' W 082°32'7 0.2
2018-Feb-19 01:44N 27°38' W 082°34'0 0.0
2018-Feb-19 01:29N 27°38' W 082°34'0 0.0
2018-Feb-19 00:59N 27°38' W 082°34'0 0.0
2018-Feb-19 00:26N 27°38' W 082°34'8 1.4
2018-Feb-18 18:51N 27°46' W 082°31'4 8.5
2018-Feb-18 18:23N 27°48' W 082°28'3 8.7
2018-Feb-18 18:00N 27°51' W 082°27'4 8.5
2018-Feb-18 17:30N 27°56' W 082°27'1 2.6
2018-Feb-18 17:01N 27°57' W 082°27'0 0.0
2018-Feb-18 16:29N 27°57' W 082°27'0 0.0
2018-Feb-18 15:59N 27°57' W 082°27'0 0.0
2018-Feb-18 15:29N 27°57' W 082°27'0 0.0
2018-Feb-18 14:59N 27°57' W 082°27'0 0.0
2018-Feb-18 14:29N 27°57' W 082°27'0 0.0
2018-Feb-18 13:59N 27°57' W 082°27'0 0.0
2018-Feb-18 13:29N 27°57' W 082°27'0 0.1
2018-Feb-18 12:59N 27°57' W 082°27'0 0.0
2018-Feb-18 12:29N 27°57' W 082°27'0 0.0
2018-Feb-18 11:59N 27°57' W 082°27'0 0.1
2018-Feb-18 11:30N 27°57' W 082°27'2 4.4
2018-Feb-18 11:00N 27°55' W 082°26'1 1.7
2018-Feb-18 10:29N 27°55' W 082°26'0 0.0
2018-Feb-18 09:59N 27°55' W 082°26'0 0.0
2018-Feb-18 09:26N 27°55' W 082°26'0 0.0
2018-Feb-18 08:59N 27°55' W 082°26'0 0.0
2018-Feb-18 08:29N 27°55' W 082°26'0 0.0
2018-Feb-18 07:56N 27°55' W 082°26'0 0.0
2018-Feb-18 07:29N 27°55' W 082°26'0 0.0
2018-Feb-18 06:59N 27°55' W 082°26'0 0.0
2018-Feb-18 06:29N 27°55' W 082°26'0 0.0
2018-Feb-18 05:59N 27°55' W 082°26'0 0.0
2018-Feb-18 05:26N 27°55' W 082°26'0 0.0
2018-Feb-18 04:59N 27°55' W 082°26'0 0.0
2018-Feb-18 04:29N 27°55' W 082°26'0 0.0
2018-Feb-18 03:59N 27°55' W 082°26'0 0.0
2018-Feb-18 03:29N 27°55' W 082°26'0 0.0
2018-Feb-18 02:59N 27°55' W 082°26'0 0.2
2018-Feb-18 02:29N 27°55' W 082°26'0 0.0
2018-Feb-18 01:59N 27°55' W 082°26'0 0.0
2018-Feb-18 01:29N 27°55' W 082°26'0 0.0
2018-Feb-18 00:59N 27°55' W 082°26'0 0.0
2018-Feb-18 00:26N 27°55' W 082°26'0 0.0
2018-Feb-17 23:59N 27°55' W 082°26'0 0.0
2018-Feb-17 23:29N 27°55' W 082°26'0 0.0
2018-Feb-17 22:56N 27°55' W 082°26'0 0.2
2018-Feb-17 22:30N 27°55' W 082°26'1 1.9
2018-Feb-17 22:01N 27°54' W 082°26'0 0.0
2018-Feb-17 21:31N 27°54' W 082°26'0 0.0
2018-Feb-17 21:00N 27°54' W 082°26'0 0.0
2018-Feb-17 20:30N 27°54' W 082°26'0 0.0
2018-Feb-17 20:00N 27°54' W 082°26'0 0.0
2018-Feb-17 19:27N 27°54' W 082°26'0 0.0
2018-Feb-17 19:00N 27°54' W 082°26'0 0.0
2018-Feb-17 18:30N 27°54' W 082°26'0 0.0
2018-Feb-17 17:54N 27°54' W 082°26'0 0.0
2018-Feb-17 17:30N 27°54' W 082°26'0 0.0
2018-Feb-17 17:00N 27°54' W 082°26'0 0.0
2018-Feb-17 16:31N 27°54' W 082°26'2 4.0
2018-Feb-17 16:00N 27°56' W 082°27'0 0.5
2018-Feb-17 15:30N 27°57' W 082°27'0 0.0
2018-Feb-17 15:00N 27°57' W 082°27'0 0.0
2018-Feb-17 14:30N 27°57' W 082°27'0 0.0
2018-Feb-17 14:00N 27°57' W 082°27'0 0.0
2018-Feb-17 13:30N 27°57' W 082°27'0 0.1
2018-Feb-17 13:00N 27°57' W 082°27'1 1.9
2018-Feb-17 12:30N 27°56' W 082°27'2 3.3
2018-Feb-17 12:00N 27°54' W 082°26'1 1.6
2018-Feb-17 11:28N 27°55' W 082°26'0 0.0
2018-Feb-17 10:52N 27°55' W 082°26'0 0.0
2018-Feb-17 10:28N 27°55' W 082°26'0 0.0
2018-Feb-17 09:58N 27°55' W 082°26'0 0.0
2018-Feb-17 09:28N 27°55' W 082°26'0 0.0
2018-Feb-17 08:58N 27°55' W 082°26'0 0.0
2018-Feb-17 08:28N 27°55' W 082°26'0 0.0
2018-Feb-17 07:58N 27°55' W 082°26'0 0.0
2018-Feb-17 07:28N 27°55' W 082°26'0 0.0
2018-Feb-17 06:58N 27°55' W 082°26'0 0.0
2018-Feb-17 06:28N 27°55' W 082°26'0 0.0
2018-Feb-17 05:58N 27°55' W 082°26'0 0.0
2018-Feb-17 05:28N 27°55' W 082°26'0 0.0
2018-Feb-17 04:55N 27°55' W 082°26'0 0.0
2018-Feb-17 04:28N 27°55' W 082°26'0 0.0
2018-Feb-17 03:58N 27°55' W 082°26'0 0.0
2018-Feb-17 03:28N 27°55' W 082°26'0 0.0
2018-Feb-17 02:58N 27°55' W 082°26'0 0.0
2018-Feb-17 02:28N 27°55' W 082°26'0 0.0
2018-Feb-17 01:58N 27°55' W 082°26'0 0.0
2018-Feb-17 01:28N 27°55' W 082°26'0 0.0
2018-Feb-17 00:55N 27°55' W 082°26'0 0.0
2018-Feb-17 00:28N 27°55' W 082°26'0 0.0
2018-Feb-16 23:58N 27°55' W 082°26'0 0.0
2018-Feb-16 23:28N 27°55' W 082°26'0 0.0
2018-Feb-16 22:58N 27°55' W 082°26'0 0.0
2018-Feb-16 22:28N 27°55' W 082°26'0 0.0
2018-Feb-16 21:52N 27°55' W 082°26'0 0.0
2018-Feb-16 21:28N 27°55' W 082°26'0 0.0
2018-Feb-16 20:58N 27°55' W 082°26'0 0.0
2018-Feb-16 20:28N 27°55' W 082°26'0 0.1
2018-Feb-16 20:01N 27°55' W 082°26'2 4.3
2018-Feb-16 19:31N 27°53' W 082°26'5 9.2
2018-Feb-16 19:01N 27°49' W 082°27'4 8.8
2018-Feb-16 18:31N 27°46' W 082°31'5 9.9
2018-Feb-16 18:01N 27°42' W 082°33'4 0.9
2018-Feb-16 13:54N 27°38' W 082°34'0 0.0
2018-Feb-16 12:54N 27°38' W 082°34'0 0.0
2018-Feb-16 07:27N 27°38' W 082°34'0 0.0
2018-Feb-16 07:00N 27°38' W 082°34'0 0.0
2018-Feb-16 06:30N 27°38' W 082°34'0 0.0
2018-Feb-16 05:36N 27°38' W 082°34'0 0.0
2018-Feb-16 05:30N 27°38' W 082°34'0 0.0
2018-Feb-16 04:48N 27°38' W 082°34'0 0.0
2018-Feb-16 03:42N 27°38' W 082°34'0 0.0
2018-Feb-16 03:27N 27°38' W 082°34'  
Track history (hours):
 
Tides and Currents Weather Stations Pressure Air Temp Water Temp Dewpoint Dewpoint Depression Visibility Wind Speed Wind Dir Waves Ship Positions

Quantico Creek

Owner: Vane Line Bunkering, Inc., Philadelphia, PA. More information available from US FCC via Universal Licensing System and Coast Guard Vessel Documentation Center.

Last reported at 2018-Feb-24 17:35 UTC. Time now 2018-Feb-25 03:44 UTC.
Position N 27°46' W 082°31'.

Length 31 m; draft 3.9 m.

Type: Other ship. MMSI: 367466650.

Date/timePositionNaut miles runAvg speedWind from/ knotsBaromVisibWave heightAir tempDewpointWater temp
2018-Feb-24 17:35N 27°46' W 082°31'110.0
2018-Feb-24 17:30N 27°46' W 082°31'5 9.4
2018-Feb-24 16:59N 27°49' W 082°27'2 4.2
2018-Feb-24 16:30N 27°51' W 082°27'2 4.9
2018-Feb-24 16:00N 27°54' W 082°26'3 6.3
2018-Feb-24 15:30N 27°57' W 082°27'0 0.1
2018-Feb-24 14:59N 27°57' W 082°27'0 0.0
2018-Feb-24 14:29N 27°57' W 082°27'0 0.0
2018-Feb-24 13:59N 27°57' W 082°27'0 0.0
2018-Feb-24 13:29N 27°57' W 082°27'0 0.0
2018-Feb-24 12:59N 27°57' W 082°27'0 0.0
2018-Feb-24 12:30N 27°57' W 082°27'0 0.7
2018-Feb-24 12:00N 27°56' W 082°27'2 3.4
2018-Feb-24 11:30N 27°55' W 082°27'5 9.5
2018-Feb-24 11:00N 27°50' W 082°27'5 9.5
2018-Feb-24 10:30N 27°47' W 082°31'510.0
2018-Feb-24 10:00N 27°42' W 082°33'3 0.1
2018-Feb-22 16:11N 27°45' W 082°32'2 9.8
2018-Feb-22 16:00N 27°47' W 082°31'5 9.3
2018-Feb-22 15:28N 27°49' W 082°27'5 9.8
2018-Feb-22 15:00N 27°54' W 082°26'3 5.5
2018-Feb-22 14:30N 27°57' W 082°27'0 0.2
2018-Feb-22 13:58N 27°57' W 082°27'0 0.0
2018-Feb-22 13:28N 27°57' W 082°27'0 0.0
2018-Feb-22 12:58N 27°57' W 082°27'0 0.0
2018-Feb-22 12:28N 27°57' W 082°27'0 0.5
2018-Feb-22 12:00N 27°57' W 082°27'0 0.8
2018-Feb-22 11:30N 27°56' W 082°27'4 7.4
2018-Feb-22 11:00N 27°53' W 082°27'5 9.6
2018-Feb-22 10:30N 27°48' W 082°28'5 9.3
2018-Feb-22 10:00N 27°44' W 082°32'1 0.0
2018-Feb-20 21:57N 27°46' W 082°31'4 8.8
2018-Feb-20 21:31N 27°48' W 082°28'5 9.4
2018-Feb-20 21:00N 27°53' W 082°27'2 4.2
2018-Feb-20 20:31N 27°54' W 082°25'0 0.0
2018-Feb-20 19:58N 27°54' W 082°25'0 0.0
2018-Feb-20 19:28N 27°54' W 082°25'0 0.0
2018-Feb-20 18:58N 27°54' W 082°25'0 0.0
2018-Feb-20 18:28N 27°54' W 082°25'0 0.0
2018-Feb-20 17:55N 27°54' W 082°25'0 0.0
2018-Feb-20 17:28N 27°54' W 082°25'0 0.0
2018-Feb-20 16:58N 27°54' W 082°25'0 0.0
2018-Feb-20 16:28N 27°54' W 082°25'0 0.0
2018-Feb-20 15:58N 27°54' W 082°25'0 0.0
2018-Feb-20 15:28N 27°54' W 082°25'0 0.0
2018-Feb-20 14:58N 27°54' W 082°25'0 0.0
2018-Feb-20 14:28N 27°54' W 082°25'0 0.0
2018-Feb-20 13:58N 27°54' W 082°25'0 0.0
2018-Feb-20 13:28N 27°54' W 082°25'0 0.0
2018-Feb-20 12:58N 27°54' W 082°25'0 0.0
2018-Feb-20 12:29N 27°54' W 082°25'0 0.1
2018-Feb-20 12:00N 27°54' W 082°25'3 6.8
2018-Feb-20 11:31N 27°51' W 082°27'4 8.2
2018-Feb-20 11:00N 27°48' W 082°29'4 8.3
2018-Feb-20 10:31N 27°44' W 082°32'7 0.2
2018-Feb-19 01:44N 27°38' W 082°34'0 0.0
2018-Feb-19 01:29N 27°38' W 082°34'0 0.0
2018-Feb-19 00:59N 27°38' W 082°34'0 0.0
2018-Feb-19 00:26N 27°38' W 082°34'8 1.4
2018-Feb-18 18:51N 27°46' W 082°31'4 8.5
2018-Feb-18 18:23N 27°48' W 082°28'3 8.7
2018-Feb-18 18:00N 27°51' W 082°27'4 8.5
2018-Feb-18 17:30N 27°56' W 082°27'1 2.6
2018-Feb-18 17:01N 27°57' W 082°27'0 0.0
2018-Feb-18 16:29N 27°57' W 082°27'0 0.0
2018-Feb-18 15:59N 27°57' W 082°27'0 0.0
2018-Feb-18 15:29N 27°57' W 082°27'0 0.0
2018-Feb-18 14:59N 27°57' W 082°27'0 0.0
2018-Feb-18 14:29N 27°57' W 082°27'0 0.0
2018-Feb-18 13:59N 27°57' W 082°27'0 0.0
2018-Feb-18 13:29N 27°57' W 082°27'0 0.1
2018-Feb-18 12:59N 27°57' W 082°27'0 0.0
2018-Feb-18 12:29N 27°57' W 082°27'0 0.0
2018-Feb-18 11:59N 27°57' W 082°27'0 0.1
2018-Feb-18 11:30N 27°57' W 082°27'2 4.4
2018-Feb-18 11:00N 27°55' W 082°26'1 1.7
2018-Feb-18 10:29N 27°55' W 082°26'0 0.0
2018-Feb-18 09:59N 27°55' W 082°26'0 0.0
2018-Feb-18 09:26N 27°55' W 082°26'0 0.0
2018-Feb-18 08:59N 27°55' W 082°26'0 0.0
2018-Feb-18 08:29N 27°55' W 082°26'0 0.0
2018-Feb-18 07:56N 27°55' W 082°26'0 0.0
2018-Feb-18 07:29N 27°55' W 082°26'0 0.0
2018-Feb-18 06:59N 27°55' W 082°26'0 0.0
2018-Feb-18 06:29N 27°55' W 082°26'0 0.0
2018-Feb-18 05:59N 27°55' W 082°26'0 0.0
2018-Feb-18 05:26N 27°55' W 082°26'0 0.0
2018-Feb-18 04:59N 27°55' W 082°26'0 0.0
2018-Feb-18 04:29N 27°55' W 082°26'0 0.0
2018-Feb-18 03:59N 27°55' W 082°26'0 0.0
2018-Feb-18 03:29N 27°55' W 082°26'0 0.0
2018-Feb-18 02:59N 27°55' W 082°26'0 0.2
2018-Feb-18 02:29N 27°55' W 082°26'0 0.0
2018-Feb-18 01:59N 27°55' W 082°26'0 0.0
2018-Feb-18 01:29N 27°55' W 082°26'0 0.0
2018-Feb-18 00:59N 27°55' W 082°26'0 0.0
2018-Feb-18 00:26N 27°55' W 082°26'0 0.0
2018-Feb-17 23:59N 27°55' W 082°26'0 0.0
2018-Feb-17 23:29N 27°55' W 082°26'0 0.0
2018-Feb-17 22:56N 27°55' W 082°26'0 0.2
2018-Feb-17 22:30N 27°55' W 082°26'1 1.9
2018-Feb-17 22:01N 27°54' W 082°26'0 0.0
2018-Feb-17 21:31N 27°54' W 082°26'0 0.0
2018-Feb-17 21:00N 27°54' W 082°26'0 0.0
2018-Feb-17 20:30N 27°54' W 082°26'0 0.0
2018-Feb-17 20:00N 27°54' W 082°26'0 0.0
2018-Feb-17 19:27N 27°54' W 082°26'0 0.0
2018-Feb-17 19:00N 27°54' W 082°26'0 0.0
2018-Feb-17 18:30N 27°54' W 082°26'0 0.0
2018-Feb-17 17:54N 27°54' W 082°26'0 0.0
2018-Feb-17 17:30N 27°54' W 082°26'0 0.0
2018-Feb-17 17:00N 27°54' W 082°26'0 0.0
2018-Feb-17 16:31N 27°54' W 082°26'2 4.0
2018-Feb-17 16:00N 27°56' W 082°27'0 0.5
2018-Feb-17 15:30N 27°57' W 082°27'0 0.0
2018-Feb-17 15:00N 27°57' W 082°27'0 0.0
2018-Feb-17 14:30N 27°57' W 082°27'0 0.0
2018-Feb-17 14:00N 27°57' W 082°27'0 0.0
2018-Feb-17 13:30N 27°57' W 082°27'0 0.1
2018-Feb-17 13:00N 27°57' W 082°27'1 1.9
2018-Feb-17 12:30N 27°56' W 082°27'2 3.3
2018-Feb-17 12:00N 27°54' W 082°26'1 1.6
2018-Feb-17 11:28N 27°55' W 082°26'0 0.0
2018-Feb-17 10:52N 27°55' W 082°26'0 0.0
2018-Feb-17 10:28N 27°55' W 082°26'0 0.0
2018-Feb-17 09:58N 27°55' W 082°26'0 0.0
2018-Feb-17 09:28N 27°55' W 082°26'0 0.0
2018-Feb-17 08:58N 27°55' W 082°26'0 0.0
2018-Feb-17 08:28N 27°55' W 082°26'0 0.0
2018-Feb-17 07:58N 27°55' W 082°26'0 0.0
2018-Feb-17 07:28N 27°55' W 082°26'0 0.0
2018-Feb-17 06:58N 27°55' W 082°26'0 0.0
2018-Feb-17 06:28N 27°55' W 082°26'0 0.0
2018-Feb-17 05:58N 27°55' W 082°26'0 0.0
2018-Feb-17 05:28N 27°55' W 082°26'0 0.0
2018-Feb-17 04:55N 27°55' W 082°26'0 0.0
2018-Feb-17 04:28N 27°55' W 082°26'0 0.0
2018-Feb-17 03:58N 27°55' W 082°26'0 0.0
2018-Feb-17 03:28N 27°55' W 082°26'0 0.0
2018-Feb-17 02:58N 27°55' W 082°26'0 0.0
2018-Feb-17 02:28N 27°55' W 082°26'0 0.0
2018-Feb-17 01:58N 27°55' W 082°26'0 0.0
2018-Feb-17 01:28N 27°55' W 082°26'0 0.0
2018-Feb-17 00:55N 27°55' W 082°26'0 0.0
2018-Feb-17 00:28N 27°55' W 082°26'0 0.0
2018-Feb-16 23:58N 27°55' W 082°26'0 0.0
2018-Feb-16 23:28N 27°55' W 082°26'0 0.0
2018-Feb-16 22:58N 27°55' W 082°26'0 0.0
2018-Feb-16 22:28N 27°55' W 082°26'0 0.0
2018-Feb-16 21:52N 27°55' W 082°26'0 0.0
2018-Feb-16 21:28N 27°55' W 082°26'0 0.0
2018-Feb-16 20:58N 27°55' W 082°26'0 0.0
2018-Feb-16 20:28N 27°55' W 082°26'0 0.1
2018-Feb-16 20:01N 27°55' W 082°26'2 4.3
2018-Feb-16 19:31N 27°53' W 082°26'5 9.2
2018-Feb-16 19:01N 27°49' W 082°27'4 8.8
2018-Feb-16 18:31N 27°46' W 082°31'5 9.9
2018-Feb-16 18:01N 27°42' W 082°33'4 0.9
2018-Feb-16 13:54N 27°38' W 082°34'0 0.0
2018-Feb-16 12:54N 27°38' W 082°34'0 0.0
2018-Feb-16 07:27N 27°38' W 082°34'0 0.0
2018-Feb-16 07:00N 27°38' W 082°34'0 0.0
2018-Feb-16 06:30N 27°38' W 082°34'0 0.0
2018-Feb-16 05:36N 27°38' W 082°34'0 0.0
2018-Feb-16 05:30N 27°38' W 082°34'0 0.0
2018-Feb-16 04:48N 27°38' W 082°34'0 0.0
2018-Feb-16 03:42N 27°38' W 082°34'0 0.0
2018-Feb-16 03:27N 27°38' W 082°34'  

Dump ship's entire track history